Time;durP1;ratioP1;P1;durP2;ratioP2;P2;SDS_P1;SDS_P2;PMS_P1;PMS_P2;Temp;Humidity;BMP_temperature;BMP_pressure;BME280_temperature;BME280_humidity;BME280_pressure;Samples;Min_cycle;Max_cycle;Signal;HPM_P1;HPM_P2
2020/12/10 00:02:14;;;;;;;14.02;6.85;;;19.90;82.40;;;;;;5053971;28;20457;-53
2020/12/10 00:04:39;;;;;;;14.10;7.18;;;19.90;82.50;;;;;;5066533;28;20070;-53
2020/12/10 00:07:06;;;;;;;16.60;6.93;;;19.90;82.50;;;;;;5061925;28;20044;-53
2020/12/10 00:09:32;;;;;;;17.25;7.38;;;19.90;82.40;;;;;;5053545;28;20052;-53
2020/12/10 00:12:00;;;;;;;14.43;7.45;;;19.90;82.50;;;;;;5054349;28;20021;-53
2020/12/10 00:14:26;;;;;;;15.05;7.38;;;19.90;82.20;;;;;;5072519;28;20098;-53
2020/12/10 00:16:51;;;;;;;13.90;7.68;;;19.90;82.10;;;;;;5067655;28;20025;-54
2020/12/10 00:19:17;;;;;;;12.93;7.28;;;19.90;82.00;;;;;;5053994;28;20033;-53
2020/12/10 00:21:42;;;;;;;14.05;7.15;;;19.90;81.80;;;;;;5054007;28;20059;-53
2020/12/10 00:24:08;;;;;;;12.52;7.10;;;19.90;82.20;;;;;;5054045;28;20048;-53
2020/12/10 00:26:34;;;;;;;14.25;7.28;;;19.90;82.10;;;;;;5054391;28;20112;-53
2020/12/10 00:28:59;;;;;;;12.75;6.80;;;19.90;82.30;;;;;;5073726;28;20028;-53
2020/12/10 00:31:25;;;;;;;15.30;7.43;;;19.90;82.00;;;;;;5073401;28;20027;-53
2020/12/10 00:33:51;;;;;;;23.02;8.73;;;19.90;82.10;;;;;;5052114;28;20029;-53
2020/12/10 00:36:16;;;;;;;16.60;7.65;;;19.80;82.00;;;;;;5053818;28;20468;-53
2020/12/10 00:38:42;;;;;;;15.07;7.32;;;19.80;81.90;;;;;;5068851;28;20036;-53
2020/12/10 00:41:08;;;;;;;17.83;7.57;;;19.80;81.80;;;;;;5073081;28;20028;-53
2020/12/10 00:43:34;;;;;;;15.93;7.05;;;19.80;81.70;;;;;;5073235;28;20025;-53
2020/12/10 00:46:03;;;;;;;14.82;7.65;;;19.80;81.60;;;;;;5073129;28;20024;-53
2020/12/10 00:48:30;;;;;;;13.43;7.20;;;19.80;81.70;;;;;;5061651;28;20082;-53
2020/12/10 00:50:55;;;;;;;17.65;7.38;;;19.80;81.80;;;;;;5053342;28;20430;-53
2020/12/10 00:53:21;;;;;;;12.52;7.13;;;19.80;81.80;;;;;;5053113;28;20104;-53
2020/12/10 00:55:46;;;;;;;14.77;8.25;;;19.80;81.80;;;;;;5053299;28;20467;-53
2020/12/10 00:58:12;;;;;;;12.73;7.25;;;19.80;81.80;;;;;;5058858;28;20028;-53
2020/12/10 01:00:38;;;;;;;17.35;7.28;;;19.80;81.50;;;;;;5071318;28;20036;-53
2020/12/10 01:03:03;;;;;;;10.43;6.65;;;19.80;81.50;;;;;;5073213;28;20028;-53
2020/12/10 01:05:29;;;;;;;14.60;6.55;;;19.80;81.30;;;;;;5073182;28;20028;-53
2020/12/10 01:07:54;;;;;;;12.15;6.95;;;19.80;81.20;;;;;;5072252;28;20119;-53
2020/12/10 01:10:20;;;;;;;14.70;6.65;;;19.80;82.10;;;;;;5052764;28;20074;-52
2020/12/10 01:12:46;;;;;;;14.10;7.07;;;19.80;81.70;;;;;;5057248;28;20013;-53
2020/12/10 01:15:11;;;;;;;12.25;7.00;;;19.80;81.40;;;;;;5072899;28;20028;-53
2020/12/10 01:17:41;;;;;;;10.95;6.90;;;19.80;81.30;;;;;;5072826;28;20479;-53
2020/12/10 01:20:08;;;;;;;16.30;7.28;;;19.80;81.10;;;;;;5056702;28;20032;-52
2020/12/10 01:22:34;;;;;;;11.27;6.38;;;19.80;81.30;;;;;;5052910;28;20025;-53
2020/12/10 01:24:59;;;;;;;11.88;6.53;;;19.80;81.10;;;;;;5052657;28;20025;-53
2020/12/10 01:27:25;;;;;;;18.65;7.22;;;19.80;81.30;;;;;;5063834;28;20040;-53
2020/12/10 01:29:51;;;;;;;12.18;6.97;;;19.80;81.00;;;;;;5060042;28;20068;-53
2020/12/10 01:32:17;;;;;;;13.30;6.53;;;19.80;80.90;;;;;;5052567;28;20024;-53
2020/12/10 01:34:43;;;;;;;15.27;6.72;;;19.80;81.10;;;;;;5050940;28;20021;-53
2020/12/10 01:37:08;;;;;;;14.65;7.30;;;19.80;81.10;;;;;;5052629;28;20040;-53
2020/12/10 01:39:34;;;;;;;12.18;6.65;;;19.80;80.90;;;;;;5058316;28;20367;-53
2020/12/10 01:42:01;;;;;;;15.18;6.40;;;19.80;80.70;;;;;;5072530;28;20496;-54
2020/12/10 01:44:27;;;;;;;20.08;7.53;;;19.80;80.90;;;;;;5072192;28;20106;-53
2020/12/10 01:46:52;;;;;;;15.23;6.65;;;19.80;80.70;;;;;;5072247;28;20472;-53
2020/12/10 01:49:19;;;;;;;14.18;6.95;;;19.80;80.60;;;;;;5070462;28;20024;-53
2020/12/10 01:51:44;;;;;;;14.18;6.72;;;19.80;80.80;;;;;;5052403;28;20040;-53
2020/12/10 01:54:10;;;;;;;10.18;6.28;;;19.80;80.60;;;;;;5050703;28;20025;-53
2020/12/10 01:56:36;;;;;;;11.60;6.68;;;19.80;80.80;;;;;;5072374;28;20028;-54
2020/12/10 01:59:03;;;;;;;9.50;5.93;;;19.80;80.80;;;;;;5070499;28;20024;-53
2020/12/10 02:01:30;;;;;;;11.32;6.20;;;19.80;80.80;;;;;;5054609;28;20052;-53
2020/12/10 02:03:56;;;;;;;14.48;6.72;;;19.80;80.50;;;;;;5052377;28;20024;-54
2020/12/10 02:06:22;;;;;;;13.23;6.07;;;19.80;80.40;;;;;;5052083;28;20068;-54
2020/12/10 02:08:47;;;;;;;14.48;7.22;;;19.80;80.60;;;;;;5052610;28;20121;-53
2020/12/10 02:11:13;;;;;;;13.35;7.15;;;19.80;80.30;;;;;;5063037;28;20032;-53
2020/12/10 02:13:40;;;;;;;13.07;6.13;;;19.80;80.50;;;;;;5071762;28;20022;-53
2020/12/10 02:16:06;;;;;;;11.45;5.93;;;19.80;80.30;;;;;;5072055;28;20029;-53
2020/12/10 02:18:32;;;;;;;12.50;6.30;;;19.80;80.20;;;;;;5062500;28;20029;-56
2020/12/10 02:20:58;;;;;;;12.10;6.43;;;19.80;80.50;;;;;;5050560;28;20369;-53
2020/12/10 02:23:23;;;;;;;12.27;6.07;;;19.80;80.50;;;;;;5051897;28;20118;-53
2020/12/10 02:25:49;;;;;;;14.73;6.00;;;19.80;80.40;;;;;;5052351;28;20449;-53
2020/12/10 02:28:16;;;;;;;11.65;6.05;;;19.80;80.10;;;;;;5054330;28;20033;-54
2020/12/10 02:30:43;;;;;;;10.55;6.07;;;19.80;80.40;;;;;;5071883;28;20115;-53
2020/12/10 02:33:11;;;;;;;10.30;5.60;;;19.80;80.50;;;;;;5060439;28;20036;-53
2020/12/10 02:35:39;;;;;;;10.70;5.90;;;19.80;80.40;;;;;;5051620;28;20473;-53
2020/12/10 02:38:07;;;;;;;14.20;5.63;;;19.80;80.20;;;;;;5051683;28;20108;-53
2020/12/10 02:40:38;;;;;;;13.90;6.38;;;19.70;80.10;;;;;;5070314;28;20020;-53
2020/12/10 02:43:04;;;;;;;12.60;6.68;;;19.80;80.20;;;;;;5071668;28;20024;-53
2020/12/10 02:45:30;;;;;;;15.02;6.35;;;19.80;80.20;;;;;;5069907;28;20024;-53
2020/12/10 02:47:57;;;;;;;16.50;6.90;;;19.80;80.20;;;;;;5053240;28;20119;-53
2020/12/10 02:50:23;;;;;;;10.48;5.55;;;19.80;79.90;;;;;;5066349;28;20025;-53
2020/12/10 02:52:49;;;;;;;9.60;5.97;;;19.80;80.00;;;;;;5071935;28;20024;-53
2020/12/10 02:55:14;;;;;;;12.60;5.65;;;19.80;80.00;;;;;;5071750;28;20338;-53
2020/12/10 02:57:40;;;;;;;11.85;6.22;;;19.80;80.20;;;;;;5071604;28;20035;-53
2020/12/10 03:00:08;;;;;;;13.02;6.03;;;19.80;79.70;;;;;;5062232;28;20033;-53
2020/12/10 03:02:34;;;;;;;13.73;5.68;;;19.80;80.00;;;;;;5055096;28;20021;-53
2020/12/10 03:04:59;;;;;;;11.98;6.03;;;19.80;79.90;;;;;;5055260;28;20055;-53
2020/12/10 03:07:25;;;;;;;9.48;5.65;;;19.80;80.00;;;;;;5055239;28;20473;-53
2020/12/10 03:09:51;;;;;;;11.40;5.88;;;19.80;80.10;;;;;;5059986;28;20435;-53
2020/12/10 03:12:17;;;;;;;12.43;5.97;;;19.70;80.20;;;;;;5073456;28;20064;-53
2020/12/10 03:14:42;;;;;;;8.70;5.55;;;19.80;79.90;;;;;;5070876;28;20480;-52
2020/12/10 03:17:08;;;;;;;12.93;5.70;;;19.80;79.70;;;;;;5055171;28;20037;-53
2020/12/10 03:19:34;;;;;;;12.43;5.95;;;19.80;80.00;;;;;;5055380;28;20480;-53
2020/12/10 03:22:00;;;;;;;12.05;5.72;;;19.80;79.70;;;;;;5074430;28;20607;-53
2020/12/10 03:24:26;;;;;;;10.02;5.43;;;19.80;79.60;;;;;;5075419;28;20040;-53
2020/12/10 03:26:51;;;;;;;12.95;5.95;;;19.70;79.70;;;;;;5073039;28;20036;-53
2020/12/10 03:29:17;;;;;;;10.77;5.82;;;19.80;79.90;;;;;;5075129;28;20054;-53
2020/12/10 03:31:42;;;;;;;9.55;5.60;;;19.70;79.70;;;;;;5059951;28;20029;-53
2020/12/10 03:34:08;;;;;;;12.65;6.03;;;19.70;79.60;;;;;;5054876;28;20059;-53
2020/12/10 03:36:51;;;;;;;11.90;5.50;;;19.80;79.70;;;;;;5053879;28;20082;-53
2020/12/10 03:39:18;;;;;;;11.57;6.18;;;19.80;79.60;;;;;;5053751;28;20025;-53
2020/12/10 03:41:45;;;;;;;12.77;6.57;;;19.80;79.70;;;;;;5066462;28;20032;-53
2020/12/10 03:44:11;;;;;;;10.77;5.97;;;19.70;79.50;;;;;;5074675;28;20036;-52
2020/12/10 03:46:37;;;;;;;8.27;5.20;;;19.70;79.50;;;;;;5074180;28;20032;-53
2020/12/10 03:49:03;;;;;;;8.75;4.53;;;19.70;79.50;;;;;;5074373;28;20028;-53
2020/12/10 03:51:28;;;;;;;10.90;5.13;;;19.70;79.80;;;;;;5066895;28;20449;-52
2020/12/10 03:53:54;;;;;;;15.45;5.65;;;19.70;79.50;;;;;;5053051;28;20476;-53
2020/12/10 03:56:19;;;;;;;11.35;5.15;;;19.70;79.60;;;;;;5064790;28;20099;-52
2020/12/10 03:58:45;;;;;;;13.60;5.63;;;19.70;79.40;;;;;;5074259;28;20017;-53
2020/12/10 04:01:11;;;;;;;14.50;5.75;;;19.70;79.30;;;;;;5072041;28;20435;-54
2020/12/10 04:03:36;;;;;;;10.25;5.40;;;19.70;79.20;;;;;;5052828;28;20032;-53
2020/12/10 04:06:02;;;;;;;12.63;5.82;;;19.70;79.30;;;;;;5054343;28;20033;-53
2020/12/10 04:08:27;;;;;;;10.05;5.63;;;19.70;79.20;;;;;;5054146;28;20106;-53
2020/12/10 04:10:53;;;;;;;14.63;5.60;;;19.70;79.20;;;;;;5052894;28;20028;-53
2020/12/10 04:13:18;;;;;;;10.85;5.07;;;19.70;79.30;;;;;;5070036;28;20086;-53
2020/12/10 04:15:44;;;;;;;12.27;5.40;;;19.70;79.10;;;;;;5073859;28;20410;-53
2020/12/10 04:18:10;;;;;;;13.85;5.55;;;19.70;79.20;;;;;;5073996;28;20024;-53
2020/12/10 04:20:36;;;;;;;11.45;4.57;;;19.70;79.10;;;;;;5074010;28;20130;-52
2020/12/10 04:23:02;;;;;;;15.18;5.65;;;19.70;79.00;;;;;;5061687;28;20056;-53
2020/12/10 04:25:27;;;;;;;13.45;4.97;;;19.70;79.00;;;;;;5052591;28;20035;-53
2020/12/10 04:27:53;;;;;;;10.07;5.60;;;19.70;78.90;;;;;;5053456;28;20040;-53
2020/12/10 04:30:21;;;;;;;9.50;5.13;;;19.70;79.20;;;;;;5052068;28;20021;-53
2020/12/10 04:32:48;;;;;;;13.40;6.05;;;19.70;79.30;;;;;;5060501;28;20066;-53
2020/12/10 04:35:14;;;;;;;9.30;5.00;;;19.70;79.00;;;;;;5073512;28;20403;-53
2020/12/10 04:37:41;;;;;;;10.57;5.65;;;19.70;79.20;;;;;;5073562;28;20020;-53
2020/12/10 04:40:08;;;;;;;10.20;5.28;;;19.70;79.30;;;;;;5073596;28;20018;-53
2020/12/10 04:42:34;;;;;;;10.38;5.15;;;19.70;79.10;;;;;;5071024;28;20025;-53
2020/12/10 04:44:59;;;;;;;9.63;5.07;;;19.70;79.20;;;;;;5053642;28;20064;-53
2020/12/10 04:47:29;;;;;;;8.50;5.00;;;19.70;79.40;;;;;;5053574;28;20071;-54
2020/12/10 04:49:56;;;;;;;9.18;5.07;;;19.70;79.00;;;;;;5052133;28;20075;-53
2020/12/10 04:52:23;;;;;;;10.25;5.18;;;19.70;79.20;;;;;;5071974;28;20484;-53
2020/12/10 04:54:49;;;;;;;8.95;5.15;;;19.70;79.20;;;;;;5054938;28;20029;-53
2020/12/10 04:57:18;;;;;;;10.48;4.88;;;19.70;79.20;;;;;;5051694;28;20029;-53
2020/12/10 04:59:44;;;;;;;12.55;5.22;;;19.70;79.10;;;;;;5052935;28;20489;-53
2020/12/10 05:02:13;;;;;;;9.48;5.38;;;19.80;79.10;;;;;;5059729;28;20021;-53
2020/12/10 05:04:40;;;;;;;12.65;4.55;;;19.80;79.30;;;;;;5057908;28;20123;-53
2020/12/10 05:07:05;;;;;;;9.32;5.15;;;19.80;79.30;;;;;;5052879;28;20086;-53
2020/12/10 05:09:31;;;;;;;8.25;5.05;;;19.70;79.00;;;;;;5052829;28;20033;-52
2020/12/10 05:11:57;;;;;;;9.52;4.50;;;19.70;79.10;;;;;;5052950;28;20067;-52
2020/12/10 05:14:23;;;;;;;8.60;5.22;;;19.70;78.90;;;;;;5061683;28;20029;-54
2020/12/10 05:17:09;;;;;;;8.63;4.45;;;19.70;78.90;;;;;;5052867;28;20025;-53
2020/12/10 05:19:35;;;;;;;10.25;4.40;;;19.80;78.80;;;;;;5063651;28;20450;-53
2020/12/10 05:22:02;;;;;;;11.00;5.47;;;19.80;79.20;;;;;;5069983;28;20027;-53
2020/12/10 05:24:29;;;;;;;11.63;5.90;;;19.70;78.80;;;;;;5067061;28;20060;-53
2020/12/10 05:27:17;;;;;;;8.65;4.95;;;19.80;78.90;;;;;;5072311;28;20054;-54
2020/12/10 05:29:42;;;;;;;9.35;4.85;;;19.70;78.60;;;;;;5072662;28;20044;-53
2020/12/10 05:32:27;;;;;;;9.20;5.40;;;19.80;79.00;;;;;;5071685;28;20021;-53
2020/12/10 05:34:53;;;;;;;9.20;4.53;;;19.70;79.00;;;;;;5059545;28;20023;-54
2020/12/10 05:37:31;;;;;;;12.23;5.32;;;19.70;78.70;;;;;;5072504;28;20016;-53
2020/12/10 05:40:01;;;;;;;8.60;4.75;;;19.80;79.00;;;;;;5072450;28;20121;-53
2020/12/10 05:42:37;;;;;;;12.13;5.30;;;19.70;78.60;;;;;;5072558;28;20039;-53
2020/12/10 05:45:29;;;;;;;9.25;4.63;;;19.70;78.40;;;;;;5066194;28;20102;-53
2020/12/10 05:47:57;;;;;;;10.48;4.93;;;19.80;78.40;;;;;;5050109;28;20562;-53
2020/12/10 05:50:27;;;;;;;7.50;4.43;;;19.80;78.70;;;;;;5051268;28;20037;-53
2020/12/10 05:53:09;;;;;;;10.60;4.75;;;19.80;78.80;;;;;;5052220;28;20052;-53
2020/12/10 05:55:38;;;;;;;8.90;4.35;;;19.70;78.30;;;;;;5060141;28;20024;-53
2020/12/10 05:58:05;;;;;;;9.07;5.00;;;19.70;78.50;;;;;;5072313;28;20032;-53
2020/12/10 06:00:32;;;;;;;11.30;5.20;;;19.80;78.40;;;;;;5072533;28;20017;-53
2020/12/10 06:02:59;;;;;;;12.30;4.60;;;19.80;78.60;;;;;;5057488;28;20029;-53
2020/12/10 06:05:25;;;;;;;9.75;4.75;;;19.80;78.40;;;;;;5055856;28;20024;-53
2020/12/10 06:08:17;;;;;;;10.60;4.80;;;19.70;77.90;;;;;;5071992;28;20032;-53
2020/12/10 06:10:42;;;;;;;8.57;4.60;;;19.70;78.20;;;;;;5071030;28;20380;-54
2020/12/10 06:13:10;;;;;;;9.05;4.57;;;19.80;78.70;;;;;;5067756;28;20112;-53
2020/12/10 06:15:37;;;;;;;8.85;4.53;;;19.70;78.50;;;;;;5052973;28;20110;-53
2020/12/10 06:18:15;;;;;;;8.80;4.05;;;19.80;78.50;;;;;;5072012;28;20028;-52
2020/12/10 06:20:41;;;;;;;11.60;4.32;;;19.80;78.80;;;;;;5072026;28;20039;-53
2020/12/10 06:23:30;;;;;;;10.23;4.38;;;19.70;78.30;;;;;;5071951;28;20049;-53
2020/12/10 06:25:58;;;;;;;10.40;4.82;;;19.80;77.80;;;;;;5050759;28;20495;-53
2020/12/10 06:28:25;;;;;;;9.02;4.28;;;19.80;78.20;;;;;;5051858;28;20040;-53
2020/12/10 06:31:08;;;;;;;13.38;4.85;;;19.80;78.80;;;;;;5051611;28;20052;-53
2020/12/10 06:33:44;;;;;;;8.73;4.50;;;19.70;78.60;;;;;;5051587;28;20458;-53
2020/12/10 06:36:20;;;;;;;11.57;4.53;;;19.80;78.90;;;;;;5054377;28;20024;-53
2020/12/10 06:38:45;;;;;;;10.40;4.78;;;19.70;78.90;;;;;;5075918;28;20027;-52
2020/12/10 06:41:11;;;;;;;11.95;4.32;;;19.70;78.60;;;;;;5071980;28;20025;-53
2020/12/10 06:43:37;;;;;;;9.82;4.78;;;19.70;78.60;;;;;;5055710;28;20028;-53
2020/12/10 06:46:03;;;;;;;9.55;5.10;;;19.70;78.70;;;;;;5055670;28;20555;-53
2020/12/10 06:48:46;;;;;;;10.45;4.65;;;19.70;78.50;;;;;;5073395;28;20545;-53
2020/12/10 06:51:14;;;;;;;8.68;4.28;;;19.80;78.40;;;;;;5075782;28;20020;-54
2020/12/10 06:54:00;;;;;;;12.45;3.72;;;19.80;78.90;;;;;;5075365;28;20414;-53
2020/12/10 06:56:52;;;;;;;9.10;4.43;;;19.80;79.90;;;;;;5075138;28;20070;-53
2020/12/10 06:59:35;;;;;;;9.50;3.95;;;19.70;79.00;;;;;;5056425;28;20033;-53
2020/12/10 07:02:15;;;;;;;8.50;4.10;;;19.70;78.70;;;;;;5075511;28;20165;-53
2020/12/10 07:04:50;;;;;;;8.85;4.78;;;19.80;78.80;;;;;;5075314;28;20444;-53
2020/12/10 07:07:17;;;;;;;14.13;4.93;;;19.80;78.60;;;;;;5071192;28;20452;-54
2020/12/10 07:10:00;;;;;;;10.63;4.30;;;19.80;78.80;;;;;;5054086;28;20416;-54
2020/12/10 07:12:27;;;;;;;9.20;4.38;;;19.70;78.40;;;;;;5056906;28;20431;-53
2020/12/10 07:15:13;;;;;;;8.20;4.50;;;19.70;78.40;;;;;;5073907;28;20453;-53
2020/12/10 07:17:38;;;;;;;14.27;5.18;;;19.70;78.20;;;;;;5072457;28;20130;-53
2020/12/10 07:20:04;;;;;;;9.82;4.47;;;19.70;79.20;;;;;;5055154;28;20072;-54
2020/12/10 07:22:30;;;;;;;9.38;4.65;;;19.70;78.40;;;;;;5053530;28;20021;-53
2020/12/10 07:24:56;;;;;;;10.43;4.78;;;19.70;78.50;;;;;;5053591;28;20446;-53
2020/12/10 07:27:21;;;;;;;12.60;4.80;;;19.80;78.50;;;;;;5054918;28;20041;-54
2020/12/10 07:29:50;;;;;;;11.60;4.85;;;19.70;78.30;;;;;;5071082;28;20115;-54
2020/12/10 07:32:16;;;;;;;11.82;4.97;;;19.80;78.20;;;;;;5074185;28;20063;-54
2020/12/10 07:34:43;;;;;;;10.57;4.18;;;19.80;78.40;;;;;;5073227;28;20413;-53
2020/12/10 07:37:12;;;;;;;12.45;4.63;;;19.70;78.60;;;;;;5059117;28;20044;-54
2020/12/10 07:39:38;;;;;;;9.35;4.35;;;19.70;78.10;;;;;;5054298;28;20032;-54
2020/12/10 07:42:03;;;;;;;32.33;9.15;;;19.70;79.50;;;;;;5069817;28;20111;-53
2020/12/10 07:44:34;;;;;;;56.88;14.23;;;19.80;80.70;;;;;;5073258;28;20028;-55
2020/12/10 07:47:01;;;;;;;51.00;13.10;;;19.80;81.00;;;;;;5058702;28;20043;-57
2020/12/10 07:49:32;;;;;;;58.92;15.23;;;19.80;80.30;;;;;;5056800;28;20040;-56
2020/12/10 07:52:08;;;;;;;51.33;13.77;;;19.80;81.00;;;;;;5067401;28;20024;-57
2020/12/10 07:54:47;;;;;;;48.05;12.90;;;19.80;82.20;;;;;;5054156;28;20095;-56
2020/12/10 07:57:39;;;;;;;40.58;12.05;;;19.80;82.20;;;;;;5053354;28;20013;-58
2020/12/10 08:00:11;;;;;;;57.17;14.18;;;19.80;83.10;;;;;;5025245;28;20044;-56
2020/12/10 08:02:46;;;;;;;52.03;13.85;;;19.80;82.80;;;;;;5052930;28;20033;-57
2020/12/10 08:05:18;;;;;;;47.03;13.63;;;19.80;84.00;;;;;;5052925;28;20098;-56
2020/12/10 08:07:49;;;;;;;43.30;12.55;;;19.80;84.20;;;;;;5054135;28;20037;-57
2020/12/10 08:10:32;;;;;;;43.50;11.65;;;19.80;84.60;;;;;;5053945;28;20025;-57
2020/12/10 08:13:14;;;;;;;46.80;12.65;;;19.80;84.50;;;;;;5059903;28;20044;-56
2020/12/10 08:15:42;;;;;;;47.03;12.80;;;19.80;84.30;;;;;;5074190;28;20032;-57
2020/12/10 08:18:12;;;;;;;38.92;11.38;;;19.80;83.60;;;;;;5073880;28;20109;-56
2020/12/10 08:20:44;;;;;;;41.17;12.90;;;19.80;84.30;;;;;;5073820;28;20020;-56
2020/12/10 08:23:11;;;;;;;40.28;11.25;;;19.80;84.00;;;;;;5073888;28;20097;-57
2020/12/10 08:25:39;;;;;;;41.42;11.80;;;19.80;84.40;;;;;;5072075;28;20369;-57
2020/12/10 08:28:06;;;;;;;33.33;12.05;;;19.80;84.60;;;;;;5073786;28;20052;-56
2020/12/10 08:30:33;;;;;;;44.33;10.70;;;19.80;84.90;;;;;;5072118;28;20059;-57
2020/12/10 08:32:59;;;;;;;36.03;11.23;;;19.80;84.90;;;;;;5073727;28;20025;-56
2020/12/10 08:35:26;;;;;;;40.97;11.43;;;19.80;84.90;;;;;;5073415;28;20028;-56
2020/12/10 08:37:51;;;;;;;39.25;11.15;;;19.80;84.90;;;;;;5073318;28;20032;-57
2020/12/10 08:40:25;;;;;;;37.17;10.55;;;19.80;84.90;;;;;;5073604;28;20032;-56
2020/12/10 08:42:52;;;;;;;41.85;11.30;;;19.80;85.70;;;;;;5073619;28;20024;-56
2020/12/10 08:45:35;;;;;;;28.58;9.68;;;19.80;85.10;;;;;;5073352;28;20035;-57
2020/12/10 08:48:02;;;;;;;30.92;10.75;;;19.80;86.00;;;;;;5073054;28;20035;-57
2020/12/10 08:50:29;;;;;;;29.92;10.85;;;19.80;85.20;;;;;;5071880;28;20385;-57
2020/12/10 08:53:04;;;;;;;31.90;11.27;;;19.80;85.60;;;;;;5071681;28;20021;-56
2020/12/10 08:55:48;;;;;;;28.63;9.65;;;19.90;85.60;;;;;;5072924;28;20070;-56
2020/12/10 08:58:24;;;;;;;27.40;9.93;;;19.80;85.40;;;;;;5072909;28;20028;-56
2020/12/10 09:00:51;;;;;;;34.22;10.25;;;19.80;85.60;;;;;;5073133;28;20106;-56
2020/12/10 09:03:17;;;;;;;29.17;9.45;;;19.80;85.30;;;;;;5073201;28;20111;-56
2020/12/10 09:05:43;;;;;;;28.25;9.68;;;19.80;85.00;;;;;;5072969;28;20025;-56
2020/12/10 09:08:09;;;;;;;30.85;10.45;;;19.80;85.70;;;;;;5072622;28;20025;-56
2020/12/10 09:10:35;;;;;;;30.98;9.52;;;19.80;85.90;;;;;;5071844;28;20500;-56
2020/12/10 09:13:01;;;;;;;26.60;9.82;;;19.80;85.50;;;;;;5072886;28;20024;-56
2020/12/10 09:15:28;;;;;;;29.08;8.75;;;19.90;85.50;;;;;;5072795;28;20089;-56
2020/12/10 09:17:54;;;;;;;26.67;9.63;;;19.90;85.30;;;;;;5071306;28;20028;-56
2020/12/10 09:20:20;;;;;;;28.35;9.45;;;19.90;85.50;;;;;;5071629;28;20341;-56
2020/12/10 09:22:45;;;;;;;22.60;8.63;;;19.90;85.40;;;;;;5072479;28;20021;-56
2020/12/10 09:25:11;;;;;;;31.08;10.90;;;19.90;85.10;;;;;;5072494;28;20027;-56
2020/12/10 09:27:37;;;;;;;21.77;9.07;;;19.90;85.30;;;;;;5072804;28;20040;-56
2020/12/10 09:30:05;;;;;;;22.48;7.95;;;19.90;85.40;;;;;;5072471;28;20036;-56
2020/12/10 09:32:35;;;;;;;23.55;8.80;;;19.90;85.30;;;;;;5072679;28;20070;-56
2020/12/10 09:35:06;;;;;;;25.45;8.93;;;19.90;85.30;;;;;;5072651;28;20043;-56
2020/12/10 09:37:34;;;;;;;23.50;9.18;;;19.90;85.40;;;;;;5072476;28;20031;-56
2020/12/10 09:40:00;;;;;;;22.48;9.73;;;19.90;85.10;;;;;;5072760;28;20540;-57
2020/12/10 09:42:25;;;;;;;22.70;8.98;;;19.90;84.90;;;;;;5072685;28;20116;-56
2020/12/10 09:44:51;;;;;;;28.45;9.07;;;19.90;85.20;;;;;;5070793;28;20024;-56
2020/12/10 09:47:16;;;;;;;25.60;8.95;;;19.90;85.00;;;;;;5071130;28;20036;-56
2020/12/10 09:49:42;;;;;;;27.90;8.80;;;19.90;84.90;;;;;;5072307;28;20025;-56
2020/12/10 09:52:08;;;;;;;18.55;7.97;;;19.90;85.30;;;;;;5070800;28;20032;-56
2020/12/10 09:54:46;;;;;;;18.58;9.18;;;19.90;85.40;;;;;;5072288;28;20040;-56
2020/12/10 09:59:44;;;;;;;21.63;7.53;;;19.90;85.40;;;;;;5072299;28;20051;-56
2020/12/10 10:02:10;;;;;;;23.92;8.05;;;20.00;85.00;;;;;;5072198;28;20465;-56
2020/12/10 10:04:35;;;;;;;15.63;7.30;;;20.00;85.40;;;;;;5071988;28;20111;-56
2020/12/10 10:07:05;;;;;;;17.40;8.18;;;20.00;85.00;;;;;;5072092;28;20627;-57
2020/12/10 10:09:32;;;;;;;24.08;7.28;;;20.00;85.30;;;;;;5069940;28;20020;-57
2020/12/10 10:11:57;;;;;;;24.38;8.23;;;20.00;85.10;;;;;;5071970;28;20020;-57
2020/12/10 10:14:23;;;;;;;20.27;7.40;;;20.00;85.40;;;;;;5071695;28;20128;-57
2020/12/10 10:16:49;;;;;;;16.25;7.03;;;20.00;85.50;;;;;;5071903;28;20025;-57
2020/12/10 10:19:14;;;;;;;23.60;8.35;;;20.00;85.50;;;;;;5072163;28;20025;-57
2020/12/10 10:21:40;;;;;;;19.25;6.95;;;20.00;85.30;;;;;;5071956;28;20361;-57
2020/12/10 10:24:07;;;;;;;14.20;7.35;;;20.00;85.60;;;;;;5071707;28;20127;-57
2020/12/10 10:26:33;;;;;;;19.38;7.38;;;20.00;85.50;;;;;;5070716;28;20129;-56
2020/12/10 10:29:00;;;;;;;18.90;7.68;;;19.90;85.30;;;;;;5071896;28;20464;-57
2020/12/10 10:31:25;;;;;;;18.98;7.90;;;20.00;85.30;;;;;;5072088;28;20020;-57
2020/12/10 10:33:51;;;;;;;17.80;6.88;;;20.00;85.40;;;;;;5072104;28;20360;-57
2020/12/10 10:36:21;;;;;;;19.35;7.20;;;20.00;85.50;;;;;;5070386;28;20025;-56
2020/12/10 10:38:47;;;;;;;19.02;7.35;;;20.00;85.50;;;;;;5072000;28;20013;-57
2020/12/10 10:41:12;;;;;;;18.02;7.30;;;20.00;85.30;;;;;;5071665;28;20095;-56
2020/12/10 10:43:38;;;;;;;19.33;7.22;;;20.00;85.50;;;;;;5071837;28;20035;-57
2020/12/10 10:46:04;;;;;;;18.63;7.50;;;20.00;85.40;;;;;;5072120;28;20032;-57
2020/12/10 10:48:29;;;;;;;17.58;7.43;;;20.00;85.40;;;;;;5071680;28;20479;-57
2020/12/10 10:50:55;;;;;;;13.77;6.53;;;20.00;85.30;;;;;;5070404;28;20021;-56
2020/12/10 10:53:21;;;;;;;17.15;6.68;;;20.00;85.40;;;;;;5070463;28;20021;-56
2020/12/10 10:55:50;;;;;;;20.60;7.57;;;20.00;85.40;;;;;;5071673;28;20107;-56
2020/12/10 10:58:16;;;;;;;19.10;7.53;;;20.00;85.30;;;;;;5070119;28;20518;-56
2020/12/10 11:00:45;;;;;;;21.15;7.07;;;20.00;85.40;;;;;;5071608;28;20031;-57
2020/12/10 11:03:11;;;;;;;16.52;6.38;;;20.00;85.30;;;;;;5068778;28;20028;-57
2020/12/10 11:05:36;;;;;;;15.77;6.50;;;20.00;85.40;;;;;;5071376;28;20040;-58
2020/12/10 11:08:02;;;;;;;15.27;6.15;;;20.00;85.20;;;;;;5071663;28;20045;-57
2020/12/10 11:10:27;;;;;;;15.82;6.47;;;20.00;85.40;;;;;;5071769;28;20056;-56
2020/12/10 11:12:53;;;;;;;12.52;5.90;;;20.00;85.20;;;;;;5071614;28;20103;-56
2020/12/10 11:15:19;;;;;;;14.20;6.20;;;20.00;85.30;;;;;;5070262;28;20021;-56
2020/12/10 11:17:44;;;;;;;15.02;7.13;;;20.00;85.30;;;;;;5071572;28;20099;-57
2020/12/10 11:20:13;;;;;;;13.43;5.70;;;20.00;85.30;;;;;;5071623;28;20069;-57
2020/12/10 11:22:39;;;;;;;12.18;6.75;;;20.00;85.30;;;;;;5072706;28;20025;-57
2020/12/10 11:25:06;;;;;;;15.20;6.38;;;20.00;85.30;;;;;;5074767;28;20361;-56
2020/12/10 11:27:31;;;;;;;13.23;5.35;;;20.00;85.20;;;;;;5072910;28;20039;-57
2020/12/10 11:29:58;;;;;;;16.10;6.80;;;20.00;85.20;;;;;;5074647;28;20024;-56
2020/12/10 11:32:23;;;;;;;14.50;6.32;;;20.00;85.30;;;;;;5073658;28;20024;-56
2020/12/10 11:34:49;;;;;;;16.25;6.25;;;20.00;85.30;;;;;;5074694;28;20066;-57
2020/12/10 11:37:15;;;;;;;11.95;5.95;;;20.00;85.10;;;;;;5074750;28;20056;-57
2020/12/10 11:39:41;;;;;;;17.63;6.75;;;20.00;85.20;;;;;;5074752;28;20052;-57
2020/12/10 11:42:06;;;;;;;13.68;5.90;;;20.00;85.20;;;;;;5074814;28;20028;-57
2020/12/10 11:44:32;;;;;;;14.57;5.35;;;20.00;85.20;;;;;;5074776;28;20492;-57
2020/12/10 11:47:01;;;;;;;14.90;5.85;;;20.00;85.20;;;;;;5074557;28;20088;-57
2020/12/10 11:49:26;;;;;;;11.07;5.43;;;20.00;85.20;;;;;;5074643;28;20090;-57
2020/12/10 11:51:52;;;;;;;16.60;6.28;;;20.00;85.30;;;;;;5074275;28;20020;-58
2020/12/10 11:54:17;;;;;;;13.90;6.18;;;20.00;85.30;;;;;;5072931;28;20032;-57
2020/12/10 11:56:43;;;;;;;14.98;6.45;;;20.00;85.20;;;;;;5074457;28;20071;-57
2020/12/10 11:59:09;;;;;;;13.95;6.28;;;20.00;85.20;;;;;;5074200;28;20025;-56
2020/12/10 12:01:39;;;;;;;11.07;5.60;;;20.00;85.30;;;;;;5074458;28;20457;-57
2020/12/10 12:04:04;;;;;;;14.88;6.10;;;20.00;85.40;;;;;;5073130;28;20024;-57
2020/12/10 12:06:30;;;;;;;15.23;5.32;;;20.00;85.30;;;;;;5074044;28;20020;-57
2020/12/10 12:08:56;;;;;;;14.75;6.15;;;20.00;85.30;;;;;;5074365;28;20024;-56
2020/12/10 12:11:26;;;;;;;13.80;5.75;;;20.00;85.20;;;;;;5072712;28;20472;-56
2020/12/10 12:13:52;;;;;;;13.25;5.65;;;20.00;85.20;;;;;;5074027;28;20407;-56
2020/12/10 12:16:18;;;;;;;12.18;5.45;;;20.00;85.20;;;;;;5073743;28;20024;-56
2020/12/10 12:18:44;;;;;;;11.52;5.22;;;20.00;85.20;;;;;;5072842;28;20358;-56
2020/12/10 12:21:10;;;;;;;13.82;5.88;;;20.00;85.20;;;;;;5072173;28;20028;-56
2020/12/10 12:23:36;;;;;;;12.18;5.20;;;20.00;85.10;;;;;;5074111;28;20048;-56
2020/12/10 12:26:02;;;;;;;14.05;5.20;;;20.00;85.30;;;;;;5073834;28;20020;-56
2020/12/10 12:28:28;;;;;;;11.13;5.82;;;20.00;85.20;;;;;;5072273;28;20060;-57
2020/12/10 12:30:55;;;;;;;10.98;5.10;;;20.00;85.20;;;;;;5073786;28;20048;-57
2020/12/10 12:33:20;;;;;;;8.55;4.65;;;20.00;85.20;;;;;;5073239;28;20032;-56
2020/12/10 12:35:47;;;;;;;12.90;5.55;;;20.00;85.10;;;;;;5073620;28;20376;-56
2020/12/10 12:38:13;;;;;;;10.50;4.82;;;20.00;85.10;;;;;;5073674;28;20016;-56
2020/12/10 12:40:39;;;;;;;10.98;5.55;;;20.00;85.20;;;;;;5073725;28;20039;-57
2020/12/10 12:43:05;;;;;;;11.35;5.18;;;20.00;85.20;;;;;;5072156;28;20115;-57
2020/12/10 12:45:31;;;;;;;16.83;5.97;;;20.00;85.80;;;;;;5071673;28;20025;-57